createdAt,value
2018-08-25T00:01:58.813Z,71.08
2018-08-25T00:04:27.118Z,71.64
2018-08-25T00:06:55.314Z,68.49
2018-08-25T00:09:23.500Z,70.51
2018-08-25T00:11:51.823Z,70.45
2018-08-25T00:14:20.043Z,69.07
2018-08-25T00:16:48.335Z,70.18
2018-08-25T00:19:16.623Z,69.23
2018-08-25T00:21:44.814Z,69.37
2018-08-25T00:24:13.068Z,68.70
2018-08-25T00:26:41.304Z,68.74
2018-08-25T00:29:09.570Z,68.30
2018-08-25T00:31:37.735Z,68.57
2018-08-25T00:34:05.934Z,68.74
2018-08-25T00:36:34.182Z,69.83
2018-08-25T00:39:02.516Z,68.91
2018-08-25T00:41:30.628Z,68.96
2018-08-25T00:43:58.852Z,68.73
2018-08-25T00:46:27.855Z,68.29
2018-08-25T00:48:55.981Z,68.79
2018-08-25T00:51:24.739Z,69.38
2018-08-25T00:53:53.045Z,68.92
2018-08-25T00:56:21.241Z,69.29
2018-08-25T00:58:49.535Z,69.47
2018-08-25T01:01:17.802Z,69.89
2018-08-25T01:03:56.917Z,69.52
2018-08-25T01:06:25.336Z,69.68
2018-08-25T01:08:53.749Z,69.35
2018-08-25T01:11:21.856Z,69.81
2018-08-25T01:13:50.870Z,69.06
2018-08-25T01:16:19.115Z,69.38
2018-08-25T01:18:47.295Z,69.74
2018-08-25T01:21:15.455Z,70.02
2018-08-25T01:23:43.655Z,69.86
2018-08-25T01:26:11.829Z,69.79
2018-08-25T01:28:40.112Z,69.96
2018-08-25T01:31:08.387Z,70.20
2018-08-25T01:33:36.557Z,71.86
2018-08-25T01:36:04.735Z,72.81
2018-08-25T01:38:32.871Z,73.07
2018-08-25T01:41:01.045Z,72.89
2018-08-25T01:43:29.161Z,72.83
2018-08-25T01:45:57.479Z,73.70
2018-08-25T01:48:25.761Z,74.05
2018-08-25T01:50:53.939Z,73.55
2018-08-25T01:53:22.142Z,73.10
2018-08-25T01:55:50.421Z,73.86
2018-08-25T01:58:18.689Z,73.64
2018-08-25T02:00:47.868Z,74.37
2018-08-25T02:03:16.301Z,75.15
2018-08-25T02:05:44.461Z,74.55
2018-08-25T02:08:12.697Z,75.24
2018-08-25T02:10:40.809Z,75.55
2018-08-25T02:13:09.114Z,74.87
2018-08-25T02:15:37.517Z,75.16
2018-08-25T02:18:05.812Z,74.71
2018-08-25T02:20:34.024Z,74.82
2018-08-25T02:23:02.151Z,74.37
2018-08-25T02:25:30.439Z,73.83
2018-08-25T02:27:58.609Z,73.38
2018-08-25T02:30:26.754Z,74.20
2018-08-25T02:32:54.972Z,75.08
2018-08-25T02:35:23.168Z,74.43
2018-08-25T02:37:51.368Z,73.98
2018-08-25T02:40:19.585Z,74.75
2018-08-25T02:42:47.872Z,74.00
2018-08-25T02:45:16.034Z,74.01
2018-08-25T02:47:44.360Z,73.59
2018-08-25T02:50:12.628Z,74.79
2018-08-25T02:52:40.873Z,74.28
2018-08-25T02:55:09.150Z,74.23
2018-08-25T02:57:37.380Z,73.96
2018-08-25T03:00:05.653Z,74.91
2018-08-25T03:02:33.913Z,75.02
2018-08-25T03:05:02.155Z,75.19
2018-08-25T03:07:30.446Z,75.86
2018-08-25T03:09:58.653Z,75.47
2018-08-25T03:12:26.849Z,75.87
2018-08-25T03:14:55.069Z,76.04
2018-08-25T03:17:23.407Z,76.24
2018-08-25T03:19:51.703Z,76.14
2018-08-25T03:22:19.913Z,76.34
2018-08-25T03:24:48.114Z,76.01
2018-08-25T03:27:16.384Z,75.94
2018-08-25T03:29:44.654Z,76.71
2018-08-25T03:32:12.873Z,76.90
2018-08-25T03:34:41.171Z,76.58
2018-08-25T03:37:09.461Z,76.00
2018-08-25T03:39:37.639Z,75.41
2018-08-25T03:42:05.829Z,75.10
2018-08-25T03:44:33.923Z,75.54
2018-08-25T03:47:02.302Z,75.32
2018-08-25T03:49:30.486Z,75.48
2018-08-25T03:51:58.729Z,76.68
2018-08-25T03:54:26.936Z,75.38
2018-08-25T03:56:55.091Z,74.59
2018-08-25T03:59:23.331Z,73.61
2018-08-25T04:01:52.048Z,73.46
2018-08-25T04:04:20.188Z,74.91
2018-08-25T04:06:48.351Z,74.97
2018-08-25T04:09:16.568Z,75.40
2018-08-25T04:11:44.753Z,74.56
2018-08-25T04:14:13.030Z,74.46
2018-08-25T04:16:41.165Z,74.37
2018-08-25T04:19:13.136Z,74.51
2018-08-25T04:21:41.286Z,74.70
2018-08-25T04:24:09.476Z,76.05
2018-08-25T04:26:37.651Z,75.67
2018-08-25T04:29:05.925Z,75.73
2018-08-25T04:31:34.096Z,75.94
2018-08-25T04:34:02.986Z,76.33
2018-08-25T04:36:31.115Z,75.19
2018-08-25T04:38:59.363Z,76.08
2018-08-25T04:41:27.573Z,76.23
2018-08-25T04:43:55.998Z,75.65
2018-08-25T04:46:24.181Z,75.87
2018-08-25T04:48:52.430Z,75.87
2018-08-25T04:51:20.666Z,76.02
2018-08-25T04:53:48.879Z,75.62
2018-08-25T04:56:17.043Z,74.49
2018-08-25T04:58:45.333Z,74.20
2018-08-25T05:01:13.473Z,74.42
2018-08-25T05:03:41.889Z,73.93
2018-08-25T05:06:10.147Z,74.14
2018-08-25T05:08:39.067Z,74.00
2018-08-25T05:11:07.193Z,74.59
2018-08-25T05:13:35.411Z,73.87
2018-08-25T05:16:03.625Z,73.56
2018-08-25T05:18:31.741Z,73.88
2018-08-25T05:20:59.976Z,73.30
2018-08-25T05:23:28.081Z,72.53
2018-08-25T05:26:02.660Z,72.64
2018-08-25T05:28:30.845Z,72.53
2018-08-25T05:30:58.968Z,72.65
2018-08-25T05:33:27.051Z,72.62
2018-08-25T05:35:56.565Z,72.62
2018-08-25T05:38:24.733Z,72.44
2018-08-25T05:40:52.937Z,72.02
2018-08-25T05:43:21.052Z,71.71
2018-08-25T05:45:49.158Z,70.76
2018-08-25T05:48:17.420Z,71.29
2018-08-25T05:50:45.735Z,70.00
2018-08-25T05:53:13.933Z,70.16
2018-08-25T05:55:42.401Z,69.37
2018-08-25T05:58:10.668Z,69.48
2018-08-25T06:00:38.816Z,70.32
2018-08-25T06:03:07.030Z,70.44
2018-08-25T06:05:35.349Z,69.82
2018-08-25T06:08:04.451Z,67.28
2018-08-25T06:10:33.398Z,64.97
2018-08-25T06:13:01.667Z,63.02
2018-08-25T06:15:36.634Z,63.62
2018-08-25T06:18:04.897Z,63.55
2018-08-25T06:20:33.046Z,63.73
2018-08-25T06:23:01.278Z,63.23
2018-08-25T06:25:29.997Z,61.96
2018-08-25T06:27:58.298Z,61.41
2018-08-25T06:30:26.398Z,60.26
2018-08-25T06:32:54.728Z,60.06
2018-08-25T06:35:23.096Z,58.79
2018-08-25T06:37:51.251Z,57.91
2018-08-25T06:40:19.432Z,58.47
2018-08-25T06:42:47.616Z,58.79
2018-08-25T06:45:16.581Z,58.05
2018-08-25T06:47:44.871Z,58.95
2018-08-25T06:50:13.072Z,58.79
2018-08-25T06:52:41.332Z,58.39
2018-08-25T06:55:09.591Z,58.45
2018-08-25T06:57:38.402Z,56.86
2018-08-25T07:00:07.449Z,56.30
2018-08-25T07:02:35.774Z,56.19
2018-08-25T07:05:05.229Z,57.54
2018-08-25T07:07:35.283Z,55.68
2018-08-25T07:10:04.393Z,55.41
2018-08-25T07:12:32.696Z,54.49
2018-08-25T07:15:02.637Z,53.55
2018-08-25T07:17:30.896Z,54.43
2018-08-25T07:19:59.327Z,53.20
2018-08-25T07:22:27.587Z,52.38
2018-08-25T07:24:55.818Z,50.80
2018-08-25T07:27:24.907Z,48.55
2018-08-25T07:29:53.157Z,45.95
2018-08-25T07:32:21.441Z,42.66
2018-08-25T07:34:49.705Z,37.02
2018-08-25T07:37:17.917Z,32.75
2018-08-25T07:39:46.267Z,29.70
2018-08-25T07:42:15.043Z,26.97
2018-08-25T07:44:43.241Z,27.38
2018-08-25T07:47:11.556Z,25.26
2018-08-25T07:49:39.736Z,23.89
2018-08-25T07:52:07.967Z,22.94
2018-08-25T07:54:36.186Z,21.89
2018-08-25T07:57:04.498Z,21.97
2018-08-25T07:59:32.760Z,21.64
2018-08-25T08:02:01.637Z,20.85
2018-08-25T08:04:30.350Z,20.98
2018-08-25T08:06:58.644Z,19.28
2018-08-25T08:09:27.024Z,18.96
2018-08-25T08:11:55.689Z,17.90
2018-08-25T08:14:24.343Z,16.92
2018-08-25T08:16:52.554Z,15.54
2018-08-25T08:19:20.777Z,15.92
2018-08-25T08:21:49.066Z,15.07
2018-08-25T08:24:18.144Z,15.01
2018-08-25T08:26:46.326Z,14.68
2018-08-25T08:29:14.558Z,16.27
2018-08-25T08:31:42.860Z,16.29
2018-08-25T08:34:11.119Z,15.71
2018-08-25T08:36:39.330Z,16.41
2018-08-25T08:39:09.090Z,15.40
2018-08-25T08:41:37.808Z,14.78
2018-08-25T08:44:06.338Z,15.14
2018-08-25T08:46:35.900Z,13.36
2018-08-25T08:49:05.890Z,13.86
2018-08-25T08:51:35.522Z,13.83
2018-08-25T08:54:03.885Z,12.40
2018-08-25T08:56:32.200Z,12.76
2018-08-25T08:59:00.942Z,13.59
2018-08-25T09:01:29.393Z,14.61
2018-08-25T09:03:57.612Z,13.65
2018-08-25T09:06:26.101Z,13.52
2018-08-25T09:08:54.372Z,13.94
2018-08-25T09:11:23.361Z,14.19
2018-08-25T09:13:51.521Z,14.31
2018-08-25T09:16:20.243Z,14.41
2018-08-25T09:18:48.819Z,15.64
2018-08-25T09:21:17.533Z,15.56
2018-08-25T09:23:45.769Z,16.06
2018-08-25T09:26:14.095Z,17.09
2018-08-25T09:28:42.428Z,19.67
2018-08-25T09:31:10.679Z,18.83
2018-08-25T09:33:38.881Z,17.35
2018-08-25T09:36:07.041Z,16.79
2018-08-25T09:38:35.215Z,17.92
2018-08-25T09:41:03.485Z,18.67
2018-08-25T09:43:31.741Z,20.57
2018-08-25T09:46:00.652Z,21.64
2018-08-25T09:48:28.882Z,20.65
2018-08-25T09:50:57.235Z,21.82
2018-08-25T09:53:25.534Z,20.91
2018-08-25T09:55:53.668Z,22.10
2018-08-25T09:58:21.929Z,22.00
2018-08-25T10:00:55.800Z,23.39
2018-08-25T10:03:24.126Z,22.97
2018-08-25T10:05:52.342Z,21.47
2018-08-25T10:08:20.684Z,22.75
2018-08-25T10:10:48.794Z,20.12
2018-08-25T10:13:17.020Z,23.07
2018-08-25T10:15:45.228Z,25.10
2018-08-25T10:18:13.474Z,28.48
2018-08-25T10:20:41.679Z,29.83
2018-08-25T10:23:09.921Z,29.80
2018-08-25T10:25:38.140Z,28.50
2018-08-25T10:28:07.049Z,26.95
2018-08-25T10:30:35.358Z,26.18
2018-08-25T10:33:03.606Z,26.14
2018-08-25T10:35:31.950Z,27.41
2018-08-25T10:38:00.127Z,30.25
2018-08-25T10:40:28.323Z,31.35
2018-08-25T10:42:56.465Z,34.25
2018-08-25T10:45:24.689Z,34.61
2018-08-25T10:47:52.956Z,35.16
2018-08-25T10:50:28.130Z,34.62
2018-08-25T10:52:56.480Z,34.30
2018-08-25T10:55:24.703Z,34.32
2018-08-25T10:57:52.868Z,33.93
2018-08-25T11:00:21.076Z,35.31
2018-08-25T11:02:49.924Z,36.70
2018-08-25T11:05:18.098Z,38.25
2018-08-25T11:07:46.330Z,40.62
2018-08-25T11:10:14.644Z,42.35
2018-08-25T11:12:42.845Z,43.24
2018-08-25T11:15:10.987Z,46.33
2018-08-25T11:17:39.243Z,45.96
2018-08-25T11:20:07.452Z,49.44
2018-08-25T11:22:35.785Z,49.36
2018-08-25T11:25:04.112Z,50.04
2018-08-25T11:27:32.296Z,49.76
2018-08-25T11:30:00.575Z,53.44
2018-08-25T11:32:28.735Z,54.08
2018-08-25T11:34:57.034Z,52.43
2018-08-25T11:37:25.304Z,56.19
2018-08-25T11:39:53.471Z,54.61
2018-08-25T11:42:21.833Z,56.07
2018-08-25T11:44:50.357Z,51.62
2018-08-25T11:47:18.682Z,52.00
2018-08-25T11:49:47.689Z,52.32
2018-08-25T11:52:15.805Z,53.08
2018-08-25T11:54:44.347Z,55.54
2018-08-25T11:57:12.481Z,55.31
2018-08-25T11:59:40.707Z,57.78
2018-08-25T12:02:08.953Z,55.61
2018-08-25T12:04:37.062Z,56.50
2018-08-25T12:07:05.629Z,56.90
2018-08-25T12:09:33.904Z,52.68
2018-08-25T12:12:01.944Z,52.38
2018-08-25T12:14:29.956Z,49.64
2018-08-25T12:16:58.165Z,48.59
2018-08-25T12:19:26.448Z,48.82
2018-08-25T12:21:54.597Z,48.79
2018-08-25T12:24:23.053Z,45.79
2018-08-25T12:26:53.341Z,45.05
2018-08-25T12:29:21.659Z,43.74
2018-08-25T12:31:50.032Z,41.43
2018-08-25T12:34:18.262Z,40.63
2018-08-25T12:36:47.110Z,41.02
2018-08-25T12:39:15.512Z,40.12
2018-08-25T12:41:43.860Z,38.20
2018-08-25T12:44:12.104Z,37.30
2018-08-25T12:46:40.206Z,37.11
2018-08-25T12:49:08.389Z,38.69
2018-08-25T12:51:36.626Z,38.50
2018-08-25T12:54:04.978Z,38.43
2018-08-25T12:56:33.236Z,38.94
2018-08-25T12:59:08.186Z,38.82
2018-08-25T13:01:36.782Z,38.23
2018-08-25T13:04:05.055Z,39.78
2018-08-25T13:06:33.257Z,39.25
2018-08-25T13:09:02.678Z,39.64
2018-08-25T13:11:30.820Z,38.19
2018-08-25T13:13:59.043Z,33.98
2018-08-25T13:16:27.283Z,29.77
2018-08-25T13:18:55.573Z,32.68
2018-08-25T13:21:24.295Z,33.17
2018-08-25T13:23:52.501Z,32.38
2018-08-25T13:26:20.716Z,30.90
2018-08-25T13:28:49.030Z,30.60
2018-08-25T13:31:17.219Z,30.99
2018-08-25T13:33:45.459Z,31.87
2018-08-25T13:36:13.683Z,32.49
2018-08-25T13:38:41.895Z,33.79
2018-08-25T13:41:10.149Z,33.50
2018-08-25T13:43:38.386Z,33.72
2018-08-25T13:46:06.711Z,33.42
2018-08-25T13:48:34.919Z,32.58
2018-08-25T13:51:03.278Z,33.58
2018-08-25T13:53:31.372Z,33.92
2018-08-25T13:55:59.541Z,34.54
2018-08-25T13:58:27.747Z,33.06
2018-08-25T14:00:56.124Z,33.78
2018-08-25T14:03:24.892Z,34.68
2018-08-25T14:05:53.122Z,35.13
2018-08-25T14:08:22.176Z,35.39
2018-08-25T14:10:50.186Z,36.63
2018-08-25T14:13:18.365Z,38.18
2018-08-25T14:15:47.225Z,38.12
2018-08-25T14:18:15.429Z,38.16
2018-08-25T14:20:43.590Z,39.30
2018-08-25T14:23:11.927Z,38.80
2018-08-25T14:25:40.142Z,38.29
2018-08-25T14:28:08.590Z,38.23
2018-08-25T14:30:36.900Z,37.32
2018-08-25T14:33:05.244Z,35.94
2018-08-25T14:35:33.476Z,34.95
2018-08-25T14:38:01.670Z,36.11
2018-08-25T14:40:30.028Z,37.22
2018-08-25T14:42:58.298Z,37.81
2018-08-25T14:45:26.552Z,39.00
2018-08-25T14:47:54.853Z,40.72
2018-08-25T14:50:23.212Z,41.00
2018-08-25T14:52:51.404Z,41.32
2018-08-25T14:55:20.472Z,42.06
2018-08-25T14:57:48.664Z,41.45
2018-08-25T15:00:16.953Z,41.17
2018-08-25T15:02:45.855Z,41.09
2018-08-25T15:05:14.058Z,39.79
2018-08-25T15:07:42.367Z,40.03
2018-08-25T15:10:10.699Z,38.80
2018-08-25T15:12:38.956Z,39.02
2018-08-25T15:15:07.329Z,39.04
2018-08-25T15:17:35.746Z,37.47
2018-08-25T15:20:04.145Z,37.39
2018-08-25T15:22:32.395Z,36.99
2018-08-25T15:25:00.609Z,36.03
2018-08-25T15:27:30.028Z,36.08
2018-08-25T15:29:58.357Z,36.20
2018-08-25T15:32:26.629Z,37.82
2018-08-25T15:34:54.973Z,38.36
2018-08-25T15:37:23.334Z,39.03
2018-08-25T15:39:51.600Z,38.96
2018-08-25T15:42:19.833Z,37.48
2018-08-25T15:44:48.089Z,37.15
2018-08-25T15:47:16.287Z,36.32
2018-08-25T15:49:44.475Z,35.59
2018-08-25T15:52:12.867Z,36.22
2018-08-25T15:54:41.032Z,36.53
2018-08-25T15:57:09.279Z,35.98
2018-08-25T15:59:37.510Z,35.80
2018-08-25T16:02:05.776Z,34.95
2018-08-25T16:04:34.026Z,34.34
2018-08-25T16:07:02.708Z,35.50
2018-08-25T16:09:31.175Z,35.55
2018-08-25T16:11:59.571Z,35.35
2018-08-25T16:14:28.496Z,35.49
2018-08-25T16:16:56.816Z,35.58
2018-08-25T16:19:27.653Z,36.36
2018-08-25T16:21:56.016Z,36.46
2018-08-25T16:24:24.436Z,37.40
2018-08-25T16:26:52.628Z,37.63
2018-08-25T16:29:20.952Z,37.99
2018-08-25T16:31:49.104Z,38.53
2018-08-25T16:34:17.310Z,38.76
2018-08-25T16:36:45.568Z,39.59
2018-08-25T16:39:13.946Z,39.98
2018-08-25T16:41:42.080Z,40.37
2018-08-25T16:44:10.409Z,40.37
2018-08-25T16:46:38.743Z,40.57
2018-08-25T16:49:07.056Z,41.43
2018-08-25T16:51:35.854Z,40.89
2018-08-25T16:54:04.108Z,41.04
2018-08-25T16:56:32.259Z,40.85
2018-08-25T16:59:01.444Z,41.01
2018-08-25T17:01:29.829Z,42.70
2018-08-25T17:03:58.082Z,42.01
2018-08-25T17:06:26.308Z,41.22
2018-08-25T17:08:54.658Z,42.12
2018-08-25T17:11:29.623Z,42.70
2018-08-25T17:13:57.925Z,42.20
2018-08-25T17:16:26.279Z,42.49
2018-08-25T17:18:54.564Z,42.80
2018-08-25T17:21:23.102Z,42.59
2018-08-25T17:23:51.607Z,43.37
2018-08-25T17:26:20.610Z,43.82
2018-08-25T17:28:48.824Z,43.94
2018-08-25T17:31:17.109Z,44.28
2018-08-25T17:33:45.336Z,44.15
2018-08-25T17:36:14.387Z,44.25
2018-08-25T17:38:43.028Z,45.20
2018-08-25T17:41:11.188Z,45.54
2018-08-25T17:43:39.850Z,46.14
2018-08-25T17:46:08.121Z,45.63
2018-08-25T17:48:36.328Z,45.79
2018-08-25T17:51:04.665Z,46.17
2018-08-25T17:53:32.857Z,47.76
2018-08-25T17:56:01.089Z,48.09
2018-08-25T17:58:29.484Z,48.20
2018-08-25T18:00:57.674Z,48.50
2018-08-25T18:03:25.956Z,48.33
2018-08-25T18:05:54.204Z,48.35
2018-08-25T18:08:22.406Z,48.34
2018-08-25T18:10:51.232Z,48.59
2018-08-25T18:13:19.439Z,48.93
2018-08-25T18:15:47.724Z,49.18
2018-08-25T18:18:15.900Z,49.48
2018-08-25T18:20:44.302Z,50.35
2018-08-25T18:23:12.624Z,50.31
2018-08-25T18:25:40.799Z,50.03
2018-08-25T18:28:10.064Z,50.13
2018-08-25T18:30:38.317Z,50.32
2018-08-25T18:33:06.588Z,50.78
2018-08-25T18:35:34.890Z,50.80
2018-08-25T18:38:03.168Z,50.86
2018-08-25T18:40:31.338Z,50.72
2018-08-25T18:42:59.616Z,51.78
2018-08-25T18:45:27.828Z,51.19
2018-08-25T18:47:56.070Z,51.50
2018-08-25T18:50:24.540Z,51.06
2018-08-25T18:52:53.033Z,52.28
2018-08-25T18:55:21.360Z,52.42
2018-08-25T18:57:50.610Z,51.25
2018-08-25T19:00:18.971Z,51.78
2018-08-25T19:02:47.989Z,52.29
2018-08-25T19:05:17.024Z,51.51
2018-08-25T19:07:45.283Z,51.73
2018-08-25T19:10:13.513Z,52.68
2018-08-25T19:12:41.723Z,52.50
2018-08-25T19:15:10.047Z,52.65
2018-08-25T19:17:38.549Z,52.95
2018-08-25T19:20:06.923Z,53.80
2018-08-25T19:22:35.275Z,53.70
2018-08-25T19:25:03.695Z,54.64
2018-08-25T19:27:32.023Z,55.28
2018-08-25T19:30:00.272Z,55.64
2018-08-25T19:32:28.575Z,55.02
2018-08-25T19:34:56.854Z,54.99
2018-08-25T19:37:25.134Z,53.96
2018-08-25T19:39:53.494Z,54.93
2018-08-25T19:42:21.746Z,54.50
2018-08-25T19:44:49.972Z,54.27
2018-08-25T19:47:18.204Z,54.38
2018-08-25T19:49:46.397Z,54.27
2018-08-25T19:52:15.157Z,54.27
2018-08-25T19:54:44.281Z,54.08
2018-08-25T19:57:12.554Z,53.62
2018-08-25T19:59:40.888Z,54.21
2018-08-25T20:02:09.116Z,53.04
2018-08-25T20:04:37.680Z,53.49
2018-08-25T20:07:05.976Z,53.96
2018-08-25T20:09:34.267Z,53.32
2018-08-25T20:12:03.173Z,52.63
2018-08-25T20:14:31.634Z,52.65
2018-08-25T20:17:00.134Z,53.08
2018-08-25T20:19:28.803Z,53.33
2018-08-25T20:21:57.751Z,53.58
2018-08-25T20:24:26.108Z,54.46
2018-08-25T20:26:57.930Z,53.15
2018-08-25T20:29:34.720Z,53.60
2018-08-25T20:32:03.164Z,53.17
2018-08-25T20:34:31.620Z,52.98
2018-08-25T20:37:00.362Z,52.49
2018-08-25T20:39:28.659Z,52.83
2018-08-25T20:41:57.027Z,51.80
2018-08-25T20:44:25.301Z,52.21
2018-08-25T20:46:53.792Z,51.80
2018-08-25T20:49:22.299Z,52.30
2018-08-25T20:51:51.013Z,51.65
2018-08-25T20:54:20.283Z,52.39
2018-08-25T20:56:48.559Z,52.74
2018-08-25T20:59:16.830Z,53.25
2018-08-25T21:01:45.025Z,53.05
2018-08-25T21:04:13.267Z,53.49
2018-08-25T21:06:41.768Z,53.31
2018-08-25T21:09:10.730Z,53.95
2018-08-25T21:11:39.052Z,54.24
2018-08-25T21:14:07.520Z,54.57
2018-08-25T21:16:35.835Z,55.17
2018-08-25T21:19:04.148Z,55.05
2018-08-25T21:21:32.482Z,54.34
2018-08-25T21:24:00.801Z,54.98
2018-08-25T21:26:28.975Z,55.23
2018-08-25T21:28:57.371Z,54.67
2018-08-25T21:31:25.611Z,55.27
2018-08-25T21:33:53.849Z,54.26
2018-08-25T21:36:22.098Z,54.19
2018-08-25T21:38:51.023Z,53.75
2018-08-25T21:41:19.231Z,53.37
2018-08-25T21:43:47.474Z,53.26
2018-08-25T21:46:15.881Z,53.37
2018-08-25T21:48:44.099Z,52.80
2018-08-25T21:51:12.469Z,52.37
2018-08-25T21:53:40.959Z,52.93
2018-08-25T21:56:09.360Z,52.77
2018-08-25T21:58:37.567Z,52.44
2018-08-25T22:01:05.903Z,52.81
2018-08-25T22:03:34.667Z,52.24
2018-08-25T22:06:02.903Z,52.27
2018-08-25T22:08:31.107Z,52.23
2018-08-25T22:10:59.444Z,51.97
2018-08-25T22:13:27.755Z,52.03
2018-08-25T22:15:56.127Z,52.23
2018-08-25T22:18:24.332Z,53.85
2018-08-25T22:20:52.664Z,52.91
2018-08-25T22:23:20.951Z,52.95
2018-08-25T22:25:49.244Z,53.04
2018-08-25T22:28:17.442Z,52.91
2018-08-25T22:30:45.633Z,53.20
2018-08-25T22:33:13.780Z,53.52
2018-08-25T22:35:42.072Z,54.14
2018-08-25T22:38:10.290Z,54.39
2018-08-25T22:40:38.608Z,54.83
2018-08-25T22:43:06.906Z,54.88
2018-08-25T22:45:35.154Z,55.67
2018-08-25T22:48:03.469Z,55.56
2018-08-25T22:50:33.178Z,55.83
2018-08-25T22:53:01.440Z,55.83
2018-08-25T22:55:29.700Z,56.05
2018-08-25T22:57:57.968Z,55.91
2018-08-25T23:00:26.220Z,56.17
2018-08-25T23:02:54.443Z,56.90
2018-08-25T23:05:22.725Z,56.45
2018-08-25T23:07:50.988Z,57.19
2018-08-25T23:10:19.252Z,57.29
2018-08-25T23:12:47.441Z,57.76
2018-08-25T23:15:15.587Z,57.80
2018-08-25T23:17:43.813Z,58.04
2018-08-25T23:20:11.917Z,57.78
2018-08-25T23:22:39.984Z,58.57
2018-08-25T23:25:08.250Z,58.63
2018-08-25T23:27:36.407Z,58.17
2018-08-25T23:30:04.853Z,59.07
2018-08-25T23:32:33.059Z,59.24
2018-08-25T23:35:01.918Z,60.17
2018-08-25T23:37:32.795Z,60.26
2018-08-25T23:40:01.542Z,60.08
2018-08-25T23:45:14.755Z,60.85
2018-08-25T23:47:42.975Z,61.02
2018-08-25T23:50:11.185Z,59.94
2018-08-25T23:52:39.961Z,59.94
2018-08-25T23:55:08.289Z,60.21
2018-08-25T23:57:36.539Z,60.46
